首页
METAR-TAF:

METAR-TAF

机场 :

费尔班克斯国际机场

費爾班克斯, 阿拉斯加州, 美国

纬度: 64-48-14N, 经度: 147-52-34W, 海拔: 132米

当前天气观测

该预报发布于48分钟前的16:53 UTC
风速5节,风向东南
温度 15°C
湿度 67%
气压 1011 hPa
能見度: 2.4公里
多云层高于1200英尺
多云层高于11000英尺

METAR: PAFA 241653Z 13005KT 1 1/2SM FU BKN012 BKN110 15/09 A2985 RMK AO2 TWR VIS 2 SLP108 T01500089 $

时间: 09:41 (17:41 UTC)

预报

该预报发布于1小时和33分钟前的16:08 UTC
预报有效从24日的 16点(UTC)到 25日的 18点(UTC)
风速4节,风向多变
能見度: 4.8公里
散云层高于5000英尺
多云层高于10000英尺
短暂存在
从 24日的 16点(UTC)到 24日的 20点(UTC)
能見度: 2.4公里
多云层高于1500英尺
从 24日的 2200点(UTC)
风速4节,风向多变
能見度: 10公里
多云层高于10000英尺
从 25日的 0400点(UTC)
风速4节,风向多变
能見度: 1.6公里
散云层高于7000英尺
多云层高于10000英尺
烟,

TAF: PAFA 241608Z 2416/2518 VRB04KT 3SM FU SCT050 BKN100 TEMPO 2416/2420 1 1/2SM FU BKN015 FM242200 VRB04KT P6SM BKN100 FM250400 VRB04KT 6SM FU SCT070 BKN100

超过4000个机场的气象观测和天气预报(METAR&TAF报告)。

可查询的气象台以黄色和红色小点在地图上表示。

将鼠标移到小点上方,可查看气象台名称。

然后点击查看天气观测和预报。

如需切换地图:点击带黑十字的绿色按钮放大地图;点击带横线的绿色按钮缩小地图;或者点击绿色箭头查看邻近地区的地图。


METAR-TAF: